Glen Ridge, Florida
Current Conditions -  °F | °C
As of 9:53 PM on Tuesday 25 Nov 2014 (Local Time) from KPBI Reporting Station
Few Clouds Few Clouds  
Wind Chill: 79°   Ceiling: Unl
Heat Index: 83°   Visibility: 10mi
Dew Point: 75°   Wind: 9mph
Humidity: 88%   Direction: 180°S
Pressure: 29.95"   Gusts: NA
Location:  26.6662°N, 80.0908°W
Report Text: KPBI 260253Z 18008KT 10SM FEW075 26/24 A2995 RMK AO2 SLP143 T02610239 50003
Loading
Personal Weather Stations






























Interactive Weather Map New forecast layout! Learn more

10-Day Weather Forecast

Advertisements
Track Severe Weather on mobile